sensor_id;sensor_type;location;lat;lon;timestamp;P1;durP1;ratioP1;P2;durP2;ratioP2
21032;SDS011;10675;47.976;7.824;2023-02-28T00:00:19;5.67;;;1.83;;
21032;SDS011;10675;47.976;7.824;2023-02-28T00:02:46;1.60;;;1.20;;
21032;SDS011;10675;47.976;7.824;2023-02-28T00:05:12;3.07;;;1.90;;
21032;SDS011;10675;47.976;7.824;2023-02-28T00:07:39;2.40;;;1.50;;
21032;SDS011;10675;47.976;7.824;2023-02-28T00:10:06;1.80;;;1.40;;
21032;SDS011;10675;47.976;7.824;2023-02-28T00:12:34;1.63;;;1.53;;
21032;SDS011;10675;47.976;7.824;2023-02-28T00:15:00;2.93;;;1.87;;
21032;SDS011;10675;47.976;7.824;2023-02-28T00:17:26;6.03;;;1.97;;
21032;SDS011;10675;47.976;7.824;2023-02-28T00:19:52;1.70;;;1.60;;
21032;SDS011;10675;47.976;7.824;2023-02-28T00:22:18;3.17;;;1.90;;
21032;SDS011;10675;47.976;7.824;2023-02-28T00:24:45;2.93;;;1.73;;
21032;SDS011;10675;47.976;7.824;2023-02-28T00:27:10;1.80;;;1.70;;
21032;SDS011;10675;47.976;7.824;2023-02-28T00:29:36;2.77;;;2.43;;
21032;SDS011;10675;47.976;7.824;2023-02-28T00:32:02;1.67;;;1.57;;
21032;SDS011;10675;47.976;7.824;2023-02-28T00:34:29;2.73;;;1.60;;
21032;SDS011;10675;47.976;7.824;2023-02-28T00:36:54;2.03;;;1.80;;
21032;SDS011;10675;47.976;7.824;2023-02-28T00:39:20;3.20;;;1.50;;
21032;SDS011;10675;47.976;7.824;2023-02-28T00:41:45;4.03;;;2.03;;
21032;SDS011;10675;47.976;7.824;2023-02-28T00:44:11;2.90;;;1.70;;
21032;SDS011;10675;47.976;7.824;2023-02-28T00:46:36;2.03;;;1.87;;
21032;SDS011;10675;47.976;7.824;2023-02-28T00:49:02;2.03;;;1.37;;
21032;SDS011;10675;47.976;7.824;2023-02-28T00:51:27;1.50;;;1.40;;
21032;SDS011;10675;47.976;7.824;2023-02-28T00:53:53;2.07;;;1.50;;
21032;SDS011;10675;47.976;7.824;2023-02-28T00:56:19;1.60;;;1.50;;
21032;SDS011;10675;47.976;7.824;2023-02-28T00:58:44;1.77;;;1.60;;
21032;SDS011;10675;47.976;7.824;2023-02-28T01:01:10;2.10;;;1.60;;
21032;SDS011;10675;47.976;7.824;2023-02-28T01:03:35;5.10;;;1.87;;
21032;SDS011;10675;47.976;7.824;2023-02-28T01:06:01;2.97;;;1.87;;
21032;SDS011;10675;47.976;7.824;2023-02-28T01:08:27;2.10;;;1.67;;
21032;SDS011;10675;47.976;7.824;2023-02-28T01:10:53;2.70;;;1.60;;
21032;SDS011;10675;47.976;7.824;2023-02-28T01:13:19;2.17;;;1.50;;
21032;SDS011;10675;47.976;7.824;2023-02-28T01:15:51;2.33;;;1.83;;
21032;SDS011;10675;47.976;7.824;2023-02-28T01:18:20;2.73;;;1.83;;
21032;SDS011;10675;47.976;7.824;2023-02-28T01:20:46;1.57;;;1.40;;
21032;SDS011;10675;47.976;7.824;2023-02-28T01:23:12;3.13;;;1.70;;
21032;SDS011;10675;47.976;7.824;2023-02-28T01:25:38;1.83;;;1.70;;
21032;SDS011;10675;47.976;7.824;2023-02-28T01:28:04;2.40;;;2.10;;
21032;SDS011;10675;47.976;7.824;2023-02-28T01:30:30;2.50;;;1.90;;
21032;SDS011;10675;47.976;7.824;2023-02-28T01:32:56;1.80;;;1.70;;
21032;SDS011;10675;47.976;7.824;2023-02-28T01:35:22;1.90;;;1.60;;
21032;SDS011;10675;47.976;7.824;2023-02-28T01:37:48;2.53;;;1.80;;
21032;SDS011;10675;47.976;7.824;2023-02-28T01:40:13;3.90;;;1.87;;
21032;SDS011;10675;47.976;7.824;2023-02-28T01:42:39;2.40;;;1.50;;
21032;SDS011;10675;47.976;7.824;2023-02-28T01:48:04;1.73;;;1.63;;
21032;SDS011;10675;47.976;7.824;2023-02-28T01:50:34;3.00;;;1.80;;
21032;SDS011;10675;47.976;7.824;2023-02-28T01:53:04;2.93;;;1.80;;
21032;SDS011;10675;47.976;7.824;2023-02-28T01:55:32;4.07;;;1.70;;
21032;SDS011;10675;47.976;7.824;2023-02-28T01:57:59;1.73;;;1.63;;
21032;SDS011;10675;47.976;7.824;2023-02-28T02:00:27;2.70;;;1.90;;
21032;SDS011;10675;47.976;7.824;2023-02-28T02:02:58;2.03;;;1.83;;
21032;SDS011;10675;47.976;7.824;2023-02-28T02:05:30;2.93;;;1.90;;
21032;SDS011;10675;47.976;7.824;2023-02-28T02:07:56;2.93;;;2.20;;
21032;SDS011;10675;47.976;7.824;2023-02-28T02:10:29;3.20;;;2.10;;
21032;SDS011;10675;47.976;7.824;2023-02-28T02:13:18;2.47;;;1.70;;
21032;SDS011;10675;47.976;7.824;2023-02-28T02:19:03;3.70;;;2.03;;
21032;SDS011;10675;47.976;7.824;2023-02-28T02:27:39;2.40;;;1.70;;
21032;SDS011;10675;47.976;7.824;2023-02-28T02:30:41;2.10;;;1.93;;
21032;SDS011;10675;47.976;7.824;2023-02-28T02:38:48;3.77;;;1.73;;
21032;SDS011;10675;47.976;7.824;2023-02-28T02:41:36;2.47;;;2.20;;
21032;SDS011;10675;47.976;7.824;2023-02-28T02:44:14;1.67;;;1.57;;
21032;SDS011;10675;47.976;7.824;2023-02-28T02:46:54;4.20;;;1.73;;
21032;SDS011;10675;47.976;7.824;2023-02-28T02:49:26;2.33;;;1.80;;
21032;SDS011;10675;47.976;7.824;2023-02-28T02:51:57;1.93;;;1.40;;
21032;SDS011;10675;47.976;7.824;2023-02-28T02:54:28;2.07;;;1.87;;
21032;SDS011;10675;47.976;7.824;2023-02-28T02:56:57;2.23;;;2.03;;
21032;SDS011;10675;47.976;7.824;2023-02-28T02:59:26;2.93;;;1.83;;
21032;SDS011;10675;47.976;7.824;2023-02-28T03:01:55;2.10;;;1.60;;
21032;SDS011;10675;47.976;7.824;2023-02-28T03:04:25;1.77;;;1.60;;
21032;SDS011;10675;47.976;7.824;2023-02-28T03:06:53;1.53;;;1.43;;
21032;SDS011;10675;47.976;7.824;2023-02-28T03:09:20;1.70;;;1.60;;
21032;SDS011;10675;47.976;7.824;2023-02-28T03:11:46;1.70;;;1.60;;
21032;SDS011;10675;47.976;7.824;2023-02-28T03:19:44;3.20;;;1.90;;
21032;SDS011;10675;47.976;7.824;2023-02-28T03:22:33;1.63;;;1.53;;
21032;SDS011;10675;47.976;7.824;2023-02-28T03:33:30;4.47;;;1.80;;
21032;SDS011;10675;47.976;7.824;2023-02-28T03:36:02;3.53;;;1.73;;
21032;SDS011;10675;47.976;7.824;2023-02-28T03:38:38;2.10;;;1.90;;
21032;SDS011;10675;47.976;7.824;2023-02-28T03:41:25;1.80;;;1.70;;
21032;SDS011;10675;47.976;7.824;2023-02-28T03:44:24;1.93;;;1.60;;
21032;SDS011;10675;47.976;7.824;2023-02-28T03:47:00;2.53;;;1.97;;
21032;SDS011;10675;47.976;7.824;2023-02-28T03:49:31;1.93;;;1.53;;
21032;SDS011;10675;47.976;7.824;2023-02-28T03:52:04;1.37;;;1.30;;
21032;SDS011;10675;47.976;7.824;2023-02-28T03:54:32;1.60;;;1.50;;
21032;SDS011;10675;47.976;7.824;2023-02-28T03:57:04;1.93;;;1.70;;
21032;SDS011;10675;47.976;7.824;2023-02-28T03:59:39;1.67;;;1.57;;
21032;SDS011;10675;47.976;7.824;2023-02-28T04:02:09;2.57;;;1.70;;
21032;SDS011;10675;47.976;7.824;2023-02-28T04:04:35;4.20;;;2.17;;
21032;SDS011;10675;47.976;7.824;2023-02-28T04:07:07;3.63;;;2.30;;
21032;SDS011;10675;47.976;7.824;2023-02-28T04:09:35;2.03;;;1.77;;
21032;SDS011;10675;47.976;7.824;2023-02-28T04:12:01;2.60;;;1.70;;
21032;SDS011;10675;47.976;7.824;2023-02-28T04:14:27;2.73;;;2.00;;
21032;SDS011;10675;47.976;7.824;2023-02-28T04:16:53;1.97;;;1.57;;
21032;SDS011;10675;47.976;7.824;2023-02-28T04:19:18;2.27;;;1.50;;
21032;SDS011;10675;47.976;7.824;2023-02-28T04:21:45;1.63;;;1.53;;
21032;SDS011;10675;47.976;7.824;2023-02-28T04:24:20;2.07;;;1.50;;
21032;SDS011;10675;47.976;7.824;2023-02-28T04:26:49;2.33;;;1.80;;
21032;SDS011;10675;47.976;7.824;2023-02-28T04:29:23;4.03;;;2.00;;
21032;SDS011;10675;47.976;7.824;2023-02-28T04:31:50;2.33;;;1.90;;
21032;SDS011;10675;47.976;7.824;2023-02-28T04:34:18;3.13;;;1.93;;
21032;SDS011;10675;47.976;7.824;2023-02-28T04:36:44;3.30;;;2.10;;
21032;SDS011;10675;47.976;7.824;2023-02-28T04:39:10;1.90;;;1.80;;
21032;SDS011;10675;47.976;7.824;2023-02-28T04:41:36;2.70;;;1.83;;
21032;SDS011;10675;47.976;7.824;2023-02-28T04:44:02;1.67;;;1.57;;
21032;SDS011;10675;47.976;7.824;2023-02-28T04:46:28;2.57;;;1.57;;
21032;SDS011;10675;47.976;7.824;2023-02-28T04:48:55;2.77;;;1.90;;
21032;SDS011;10675;47.976;7.824;2023-02-28T04:51:20;3.67;;;1.93;;
21032;SDS011;10675;47.976;7.824;2023-02-28T04:53:46;1.97;;;1.87;;
21032;SDS011;10675;47.976;7.824;2023-02-28T04:56:13;2.73;;;1.77;;
21032;SDS011;10675;47.976;7.824;2023-02-28T04:58:40;1.90;;;1.70;;
21032;SDS011;10675;47.976;7.824;2023-02-28T05:01:16;1.90;;;1.80;;
21032;SDS011;10675;47.976;7.824;2023-02-28T05:03:44;2.43;;;1.83;;
21032;SDS011;10675;47.976;7.824;2023-02-28T05:06:10;1.73;;;1.60;;
21032;SDS011;10675;47.976;7.824;2023-02-28T05:08:37;3.77;;;2.20;;
21032;SDS011;10675;47.976;7.824;2023-02-28T05:11:03;2.00;;;1.80;;
21032;SDS011;10675;47.976;7.824;2023-02-28T05:13:31;2.33;;;2.10;;
21032;SDS011;10675;47.976;7.824;2023-02-28T05:15:56;6.43;;;1.70;;
21032;SDS011;10675;47.976;7.824;2023-02-28T05:18:22;2.07;;;1.70;;
21032;SDS011;10675;47.976;7.824;2023-02-28T05:20:47;3.43;;;2.00;;
21032;SDS011;10675;47.976;7.824;2023-02-28T05:23:13;2.80;;;2.03;;
21032;SDS011;10675;47.976;7.824;2023-02-28T05:25:47;2.23;;;1.80;;
21032;SDS011;10675;47.976;7.824;2023-02-28T05:28:13;2.20;;;1.87;;
21032;SDS011;10675;47.976;7.824;2023-02-28T05:30:39;2.60;;;2.07;;
21032;SDS011;10675;47.976;7.824;2023-02-28T05:33:04;1.93;;;1.60;;
21032;SDS011;10675;47.976;7.824;2023-02-28T05:35:30;3.53;;;1.87;;
21032;SDS011;10675;47.976;7.824;2023-02-28T05:37:56;2.07;;;1.80;;
21032;SDS011;10675;47.976;7.824;2023-02-28T05:40:21;3.70;;;1.97;;
21032;SDS011;10675;47.976;7.824;2023-02-28T05:42:47;2.23;;;1.77;;
21032;SDS011;10675;47.976;7.824;2023-02-28T05:45:14;2.00;;;1.80;;
21032;SDS011;10675;47.976;7.824;2023-02-28T05:47:40;3.13;;;1.97;;
21032;SDS011;10675;47.976;7.824;2023-02-28T05:50:05;1.60;;;1.50;;
21032;SDS011;10675;47.976;7.824;2023-02-28T05:52:31;3.13;;;1.90;;
21032;SDS011;10675;47.976;7.824;2023-02-28T05:54:57;4.93;;;2.10;;
21032;SDS011;10675;47.976;7.824;2023-02-28T05:57:23;4.93;;;3.33;;
21032;SDS011;10675;47.976;7.824;2023-02-28T05:59:49;3.00;;;1.97;;
21032;SDS011;10675;47.976;7.824;2023-02-28T06:02:15;4.40;;;2.50;;
21032;SDS011;10675;47.976;7.824;2023-02-28T06:04:42;5.30;;;2.37;;
21032;SDS011;10675;47.976;7.824;2023-02-28T06:07:08;3.90;;;2.47;;
21032;SDS011;10675;47.976;7.824;2023-02-28T06:09:35;2.50;;;1.90;;
21032;SDS011;10675;47.976;7.824;2023-02-28T06:12:01;3.97;;;2.50;;
21032;SDS011;10675;47.976;7.824;2023-02-28T06:14:30;2.13;;;2.00;;
21032;SDS011;10675;47.976;7.824;2023-02-28T06:16:57;3.37;;;2.17;;
21032;SDS011;10675;47.976;7.824;2023-02-28T06:19:23;2.63;;;2.13;;
21032;SDS011;10675;47.976;7.824;2023-02-28T06:21:50;3.63;;;2.13;;
21032;SDS011;10675;47.976;7.824;2023-02-28T06:24:17;4.40;;;2.17;;
21032;SDS011;10675;47.976;7.824;2023-02-28T06:26:43;3.83;;;1.90;;
21032;SDS011;10675;47.976;7.824;2023-02-28T06:29:09;3.57;;;2.80;;
21032;SDS011;10675;47.976;7.824;2023-02-28T06:31:35;6.00;;;2.30;;
21032;SDS011;10675;47.976;7.824;2023-02-28T06:34:00;2.10;;;1.90;;
21032;SDS011;10675;47.976;7.824;2023-02-28T06:36:26;2.70;;;1.97;;
21032;SDS011;10675;47.976;7.824;2023-02-28T06:38:51;4.10;;;2.33;;
21032;SDS011;10675;47.976;7.824;2023-02-28T06:41:20;2.53;;;2.33;;
21032;SDS011;10675;47.976;7.824;2023-02-28T06:43:46;3.30;;;2.50;;
21032;SDS011;10675;47.976;7.824;2023-02-28T06:46:13;3.93;;;2.30;;
21032;SDS011;10675;47.976;7.824;2023-02-28T06:48:39;4.00;;;2.33;;
21032;SDS011;10675;47.976;7.824;2023-02-28T06:51:07;3.43;;;2.67;;
21032;SDS011;10675;47.976;7.824;2023-02-28T06:53:35;8.33;;;2.60;;
21032;SDS011;10675;47.976;7.824;2023-02-28T06:56:07;6.10;;;2.40;;
21032;SDS011;10675;47.976;7.824;2023-02-28T06:58:34;2.43;;;1.93;;
21032;SDS011;10675;47.976;7.824;2023-02-28T07:01:00;2.90;;;2.03;;
21032;SDS011;10675;47.976;7.824;2023-02-28T07:03:26;2.17;;;1.83;;
21032;SDS011;10675;47.976;7.824;2023-02-28T07:05:52;3.40;;;2.13;;
21032;SDS011;10675;47.976;7.824;2023-02-28T07:08:17;3.47;;;2.27;;
21032;SDS011;10675;47.976;7.824;2023-02-28T07:10:43;3.47;;;2.07;;
21032;SDS011;10675;47.976;7.824;2023-02-28T07:13:09;2.53;;;2.20;;
21032;SDS011;10675;47.976;7.824;2023-02-28T07:15:35;4.27;;;2.20;;
21032;SDS011;10675;47.976;7.824;2023-02-28T07:18:01;3.40;;;2.03;;
21032;SDS011;10675;47.976;7.824;2023-02-28T07:20:28;3.27;;;2.23;;
21032;SDS011;10675;47.976;7.824;2023-02-28T07:22:54;3.23;;;2.30;;
21032;SDS011;10675;47.976;7.824;2023-02-28T07:25:27;3.37;;;2.40;;
21032;SDS011;10675;47.976;7.824;2023-02-28T07:27:53;2.40;;;2.10;;
21032;SDS011;10675;47.976;7.824;2023-02-28T07:30:20;3.77;;;2.10;;
21032;SDS011;10675;47.976;7.824;2023-02-28T07:32:46;2.40;;;2.20;;
21032;SDS011;10675;47.976;7.824;2023-02-28T07:35:11;2.90;;;2.50;;
21032;SDS011;10675;47.976;7.824;2023-02-28T07:37:37;4.33;;;2.40;;
21032;SDS011;10675;47.976;7.824;2023-02-28T07:40:03;2.83;;;2.17;;
21032;SDS011;10675;47.976;7.824;2023-02-28T07:42:33;7.10;;;2.60;;
21032;SDS011;10675;47.976;7.824;2023-02-28T07:45:00;6.63;;;2.43;;
21032;SDS011;10675;47.976;7.824;2023-02-28T07:47:25;2.93;;;2.63;;
21032;SDS011;10675;47.976;7.824;2023-02-28T07:49:51;5.10;;;2.70;;
21032;SDS011;10675;47.976;7.824;2023-02-28T07:52:17;3.77;;;2.13;;
21032;SDS011;10675;47.976;7.824;2023-02-28T07:54:43;3.60;;;2.63;;
21032;SDS011;10675;47.976;7.824;2023-02-28T07:57:08;3.17;;;2.63;;
21032;SDS011;10675;47.976;7.824;2023-02-28T07:59:34;6.37;;;2.70;;
21032;SDS011;10675;47.976;7.824;2023-02-28T08:01:59;2.60;;;2.23;;
21032;SDS011;10675;47.976;7.824;2023-02-28T08:04:25;2.50;;;2.30;;
21032;SDS011;10675;47.976;7.824;2023-02-28T08:06:50;7.03;;;3.20;;
21032;SDS011;10675;47.976;7.824;2023-02-28T08:09:17;3.67;;;2.80;;
21032;SDS011;10675;47.976;7.824;2023-02-28T08:11:44;3.40;;;2.27;;
21032;SDS011;10675;47.976;7.824;2023-02-28T08:14:09;8.80;;;2.73;;
21032;SDS011;10675;47.976;7.824;2023-02-28T08:16:35;3.47;;;2.33;;
21032;SDS011;10675;47.976;7.824;2023-02-28T08:19:00;2.73;;;2.40;;
21032;SDS011;10675;47.976;7.824;2023-02-28T08:21:26;5.57;;;2.77;;
21032;SDS011;10675;47.976;7.824;2023-02-28T08:23:51;4.03;;;2.53;;
21032;SDS011;10675;47.976;7.824;2023-02-28T08:26:17;3.50;;;2.40;;
21032;SDS011;10675;47.976;7.824;2023-02-28T08:28:44;6.53;;;2.93;;
21032;SDS011;10675;47.976;7.824;2023-02-28T08:31:10;5.80;;;2.53;;
21032;SDS011;10675;47.976;7.824;2023-02-28T08:33:37;3.03;;;2.50;;
21032;SDS011;10675;47.976;7.824;2023-02-28T08:36:04;3.10;;;2.50;;
21032;SDS011;10675;47.976;7.824;2023-02-28T08:38:30;2.40;;;2.20;;
21032;SDS011;10675;47.976;7.824;2023-02-28T08:40:57;4.40;;;2.53;;
21032;SDS011;10675;47.976;7.824;2023-02-28T08:43:23;4.13;;;3.03;;
21032;SDS011;10675;47.976;7.824;2023-02-28T08:45:51;3.40;;;2.30;;
21032;SDS011;10675;47.976;7.824;2023-02-28T08:48:21;4.10;;;2.90;;
21032;SDS011;10675;47.976;7.824;2023-02-28T08:50:57;4.63;;;2.87;;
21032;SDS011;10675;47.976;7.824;2023-02-28T08:53:28;4.20;;;2.60;;
21032;SDS011;10675;47.976;7.824;2023-02-28T08:56:08;4.17;;;2.67;;
21032;SDS011;10675;47.976;7.824;2023-02-28T08:58:34;3.40;;;2.63;;
21032;SDS011;10675;47.976;7.824;2023-02-28T09:01:06;4.53;;;3.07;;
21032;SDS011;10675;47.976;7.824;2023-02-28T09:03:36;4.87;;;3.27;;
21032;SDS011;10675;47.976;7.824;2023-02-28T09:06:03;6.47;;;3.33;;
21032;SDS011;10675;47.976;7.824;2023-02-28T09:08:29;2.97;;;2.67;;
21032;SDS011;10675;47.976;7.824;2023-02-28T09:10:56;5.00;;;3.00;;
21032;SDS011;10675;47.976;7.824;2023-02-28T09:13:23;4.47;;;2.80;;
21032;SDS011;10675;47.976;7.824;2023-02-28T09:15:49;4.43;;;3.43;;
21032;SDS011;10675;47.976;7.824;2023-02-28T09:18:15;4.90;;;3.00;;
21032;SDS011;10675;47.976;7.824;2023-02-28T09:20:41;3.60;;;3.03;;
21032;SDS011;10675;47.976;7.824;2023-02-28T09:23:08;4.63;;;3.30;;
21032;SDS011;10675;47.976;7.824;2023-02-28T09:25:34;4.23;;;3.10;;
21032;SDS011;10675;47.976;7.824;2023-02-28T09:28:00;4.83;;;3.40;;
21032;SDS011;10675;47.976;7.824;2023-02-28T09:30:26;6.37;;;3.40;;
21032;SDS011;10675;47.976;7.824;2023-02-28T09:32:52;3.63;;;2.60;;
21032;SDS011;10675;47.976;7.824;2023-02-28T09:35:19;6.70;;;3.27;;
21032;SDS011;10675;47.976;7.824;2023-02-28T09:37:46;4.83;;;3.63;;
21032;SDS011;10675;47.976;7.824;2023-02-28T09:40:12;3.43;;;2.57;;
21032;SDS011;10675;47.976;7.824;2023-02-28T09:42:39;5.37;;;3.10;;
21032;SDS011;10675;47.976;7.824;2023-02-28T09:45:06;3.83;;;2.80;;
21032;SDS011;10675;47.976;7.824;2023-02-28T09:47:52;4.47;;;2.97;;
21032;SDS011;10675;47.976;7.824;2023-02-28T09:50:40;5.33;;;3.47;;
21032;SDS011;10675;47.976;7.824;2023-02-28T09:53:29;4.10;;;3.20;;
21032;SDS011;10675;47.976;7.824;2023-02-28T09:55:59;3.70;;;2.97;;
21032;SDS011;10675;47.976;7.824;2023-02-28T09:58:43;3.57;;;3.00;;
21032;SDS011;10675;47.976;7.824;2023-02-28T10:07:12;7.33;;;2.97;;
21032;SDS011;10675;47.976;7.824;2023-02-28T10:09:55;3.10;;;2.80;;
21032;SDS011;10675;47.976;7.824;2023-02-28T10:12:22;5.20;;;3.17;;
21032;SDS011;10675;47.976;7.824;2023-02-28T10:14:51;3.90;;;3.23;;
21032;SDS011;10675;47.976;7.824;2023-02-28T10:17:19;3.50;;;2.77;;
21032;SDS011;10675;47.976;7.824;2023-02-28T10:22:19;5.13;;;3.60;;
21032;SDS011;10675;47.976;7.824;2023-02-28T10:24:52;3.60;;;3.13;;
21032;SDS011;10675;47.976;7.824;2023-02-28T10:27:25;3.83;;;3.43;;
21032;SDS011;10675;47.976;7.824;2023-02-28T10:29:58;4.03;;;2.77;;
21032;SDS011;10675;47.976;7.824;2023-02-28T10:32:27;6.13;;;4.03;;
21032;SDS011;10675;47.976;7.824;2023-02-28T10:35:10;7.03;;;3.40;;
21032;SDS011;10675;47.976;7.824;2023-02-28T10:37:45;4.37;;;2.90;;
21032;SDS011;10675;47.976;7.824;2023-02-28T10:45:37;4.00;;;3.10;;
21032;SDS011;10675;47.976;7.824;2023-02-28T10:48:04;5.53;;;3.40;;
21032;SDS011;10675;47.976;7.824;2023-02-28T10:53:16;4.93;;;2.97;;
21032;SDS011;10675;47.976;7.824;2023-02-28T11:01:17;3.73;;;3.23;;
21032;SDS011;10675;47.976;7.824;2023-02-28T11:03:44;4.77;;;3.30;;
21032;SDS011;10675;47.976;7.824;2023-02-28T11:06:18;4.17;;;3.23;;
21032;SDS011;10675;47.976;7.824;2023-02-28T11:08:56;5.30;;;3.53;;
21032;SDS011;10675;47.976;7.824;2023-02-28T11:11:25;6.83;;;3.60;;
21032;SDS011;10675;47.976;7.824;2023-02-28T11:13:54;4.83;;;3.27;;
21032;SDS011;10675;47.976;7.824;2023-02-28T11:16:22;5.03;;;3.27;;
21032;SDS011;10675;47.976;7.824;2023-02-28T11:19:02;4.47;;;3.50;;
21032;SDS011;10675;47.976;7.824;2023-02-28T11:21:35;4.87;;;3.43;;
21032;SDS011;10675;47.976;7.824;2023-02-28T11:24:27;4.53;;;3.30;;
21032;SDS011;10675;47.976;7.824;2023-02-28T11:26:59;5.17;;;2.90;;
21032;SDS011;10675;47.976;7.824;2023-02-28T11:32:03;5.40;;;3.53;;
21032;SDS011;10675;47.976;7.824;2023-02-28T11:34:29;5.17;;;3.27;;
21032;SDS011;10675;47.976;7.824;2023-02-28T11:36:56;6.40;;;3.40;;
21032;SDS011;10675;47.976;7.824;2023-02-28T11:39:23;4.30;;;3.43;;
21032;SDS011;10675;47.976;7.824;2023-02-28T11:42:00;4.80;;;3.10;;
21032;SDS011;10675;47.976;7.824;2023-02-28T11:50:52;6.20;;;3.63;;
21032;SDS011;10675;47.976;7.824;2023-02-28T11:56:21;4.53;;;3.27;;
21032;SDS011;10675;47.976;7.824;2023-02-28T12:06:33;4.30;;;3.40;;
21032;SDS011;10675;47.976;7.824;2023-02-28T12:12:23;6.73;;;3.50;;
21032;SDS011;10675;47.976;7.824;2023-02-28T12:28:40;4.70;;;3.60;;
21032;SDS011;10675;47.976;7.824;2023-02-28T12:31:29;4.50;;;3.30;;
21032;SDS011;10675;47.976;7.824;2023-02-28T12:34:00;5.00;;;3.40;;
21032;SDS011;10675;47.976;7.824;2023-02-28T12:36:31;5.77;;;3.70;;
21032;SDS011;10675;47.976;7.824;2023-02-28T12:39:00;5.07;;;3.27;;
21032;SDS011;10675;47.976;7.824;2023-02-28T12:41:33;5.60;;;3.27;;
21032;SDS011;10675;47.976;7.824;2023-02-28T12:44:09;3.87;;;3.47;;
21032;SDS011;10675;47.976;7.824;2023-02-28T12:46:42;6.37;;;4.17;;
21032;SDS011;10675;47.976;7.824;2023-02-28T12:49:18;5.07;;;3.20;;
21032;SDS011;10675;47.976;7.824;2023-02-28T12:51:56;4.83;;;4.00;;
21032;SDS011;10675;47.976;7.824;2023-02-28T12:54:33;5.27;;;3.20;;
21032;SDS011;10675;47.976;7.824;2023-02-28T12:59:51;5.17;;;3.30;;
21032;SDS011;10675;47.976;7.824;2023-02-28T13:02:42;4.23;;;3.30;;
21032;SDS011;10675;47.976;7.824;2023-02-28T13:11:23;7.50;;;3.43;;
21032;SDS011;10675;47.976;7.824;2023-02-28T13:14:02;6.63;;;4.00;;
21032;SDS011;10675;47.976;7.824;2023-02-28T13:16:46;5.17;;;3.87;;
21032;SDS011;10675;47.976;7.824;2023-02-28T13:19:36;4.43;;;3.50;;
21032;SDS011;10675;47.976;7.824;2023-02-28T13:24:51;6.53;;;3.73;;
21032;SDS011;10675;47.976;7.824;2023-02-28T13:27:32;6.00;;;3.70;;
21032;SDS011;10675;47.976;7.824;2023-02-28T13:30:00;5.03;;;4.10;;
21032;SDS011;10675;47.976;7.824;2023-02-28T13:32:46;7.10;;;4.10;;
21032;SDS011;10675;47.976;7.824;2023-02-28T13:35:44;6.80;;;3.90;;
21032;SDS011;10675;47.976;7.824;2023-02-28T13:38:24;7.70;;;4.10;;
21032;SDS011;10675;47.976;7.824;2023-02-28T13:41:21;7.17;;;4.03;;
21032;SDS011;10675;47.976;7.824;2023-02-28T13:51:53;5.33;;;4.13;;
21032;SDS011;10675;47.976;7.824;2023-02-28T14:06:10;8.50;;;4.27;;
21032;SDS011;10675;47.976;7.824;2023-02-28T14:08:56;4.93;;;3.37;;
21032;SDS011;10675;47.976;7.824;2023-02-28T14:14:00;5.17;;;3.80;;
21032;SDS011;10675;47.976;7.824;2023-02-28T14:16:49;5.97;;;4.00;;
21032;SDS011;10675;47.976;7.824;2023-02-28T14:39:05;4.20;;;3.77;;
21032;SDS011;10675;47.976;7.824;2023-02-28T14:41:32;5.03;;;4.10;;
21032;SDS011;10675;47.976;7.824;2023-02-28T14:44:02;6.23;;;4.13;;
21032;SDS011;10675;47.976;7.824;2023-02-28T14:46:38;7.77;;;4.20;;
21032;SDS011;10675;47.976;7.824;2023-02-28T14:49:06;6.33;;;4.23;;
21032;SDS011;10675;47.976;7.824;2023-02-28T14:51:37;5.43;;;4.17;;
21032;SDS011;10675;47.976;7.824;2023-02-28T14:54:03;6.20;;;4.07;;
21032;SDS011;10675;47.976;7.824;2023-02-28T14:56:34;4.77;;;4.27;;
21032;SDS011;10675;47.976;7.824;2023-02-28T14:59:02;6.93;;;3.80;;
21032;SDS011;10675;47.976;7.824;2023-02-28T15:01:29;5.17;;;3.93;;
21032;SDS011;10675;47.976;7.824;2023-02-28T15:04:04;6.67;;;4.20;;
21032;SDS011;10675;47.976;7.824;2023-02-28T15:06:31;6.47;;;4.20;;
21032;SDS011;10675;47.976;7.824;2023-02-28T15:09:17;5.70;;;4.63;;
21032;SDS011;10675;47.976;7.824;2023-02-28T15:11:47;3.97;;;3.57;;
21032;SDS011;10675;47.976;7.824;2023-02-28T15:14:15;8.53;;;4.60;;
21032;SDS011;10675;47.976;7.824;2023-02-28T15:16:44;6.77;;;4.27;;
21032;SDS011;10675;47.976;7.824;2023-02-28T15:19:29;6.50;;;4.80;;
21032;SDS011;10675;47.976;7.824;2023-02-28T15:22:04;4.47;;;3.90;;
21032;SDS011;10675;47.976;7.824;2023-02-28T15:24:40;5.40;;;4.10;;
21032;SDS011;10675;47.976;7.824;2023-02-28T15:27:15;5.17;;;4.00;;
21032;SDS011;10675;47.976;7.824;2023-02-28T15:29:51;6.27;;;4.43;;
21032;SDS011;10675;47.976;7.824;2023-02-28T15:34:57;6.83;;;4.33;;
21032;SDS011;10675;47.976;7.824;2023-02-28T15:37:48;5.27;;;4.53;;
21032;SDS011;10675;47.976;7.824;2023-02-28T15:42:58;6.73;;;4.70;;
21032;SDS011;10675;47.976;7.824;2023-02-28T15:45:28;7.60;;;4.30;;
21032;SDS011;10675;47.976;7.824;2023-02-28T15:47:59;6.30;;;4.70;;
21032;SDS011;10675;47.976;7.824;2023-02-28T15:50:27;5.57;;;4.33;;
21032;SDS011;10675;47.976;7.824;2023-02-28T15:52:53;5.70;;;4.20;;
21032;SDS011;10675;47.976;7.824;2023-02-28T15:55:19;8.20;;;4.43;;
21032;SDS011;10675;47.976;7.824;2023-02-28T15:57:48;6.60;;;3.97;;
21032;SDS011;10675;47.976;7.824;2023-02-28T16:00:21;4.97;;;4.13;;
21032;SDS011;10675;47.976;7.824;2023-02-28T16:02:48;5.57;;;4.43;;
21032;SDS011;10675;47.976;7.824;2023-02-28T16:05:20;5.37;;;3.93;;
21032;SDS011;10675;47.976;7.824;2023-02-28T16:07:55;5.93;;;3.80;;
21032;SDS011;10675;47.976;7.824;2023-02-28T16:10:23;7.77;;;4.43;;
21032;SDS011;10675;47.976;7.824;2023-02-28T16:12:52;5.47;;;3.90;;
21032;SDS011;10675;47.976;7.824;2023-02-28T16:15:23;4.23;;;3.83;;
21032;SDS011;10675;47.976;7.824;2023-02-28T16:17:51;5.50;;;4.50;;
21032;SDS011;10675;47.976;7.824;2023-02-28T16:20:21;5.37;;;4.57;;
21032;SDS011;10675;47.976;7.824;2023-02-28T16:22:49;6.53;;;4.60;;
21032;SDS011;10675;47.976;7.824;2023-02-28T16:25:15;6.47;;;4.30;;
21032;SDS011;10675;47.976;7.824;2023-02-28T16:27:44;4.97;;;4.17;;
21032;SDS011;10675;47.976;7.824;2023-02-28T16:30:18;5.60;;;4.00;;
21032;SDS011;10675;47.976;7.824;2023-02-28T16:32:46;5.20;;;4.40;;
21032;SDS011;10675;47.976;7.824;2023-02-28T16:35:12;6.17;;;4.60;;
21032;SDS011;10675;47.976;7.824;2023-02-28T16:37:38;7.77;;;4.80;;
21032;SDS011;10675;47.976;7.824;2023-02-28T16:40:05;8.77;;;4.83;;
21032;SDS011;10675;47.976;7.824;2023-02-28T16:42:31;7.40;;;4.83;;
21032;SDS011;10675;47.976;7.824;2023-02-28T16:44:57;5.87;;;4.80;;
21032;SDS011;10675;47.976;7.824;2023-02-28T16:47:23;6.93;;;4.40;;
21032;SDS011;10675;47.976;7.824;2023-02-28T16:49:49;6.00;;;4.67;;
21032;SDS011;10675;47.976;7.824;2023-02-28T16:52:14;6.50;;;4.63;;
21032;SDS011;10675;47.976;7.824;2023-02-28T16:54:40;6.57;;;4.63;;
21032;SDS011;10675;47.976;7.824;2023-02-28T16:57:08;8.60;;;4.47;;
21032;SDS011;10675;47.976;7.824;2023-02-28T16:59:44;7.17;;;4.37;;
21032;SDS011;10675;47.976;7.824;2023-02-28T17:02:10;5.87;;;4.43;;
21032;SDS011;10675;47.976;7.824;2023-02-28T17:04:46;6.13;;;4.27;;
21032;SDS011;10675;47.976;7.824;2023-02-28T17:07:12;6.47;;;4.27;;
21032;SDS011;10675;47.976;7.824;2023-02-28T17:09:40;6.57;;;4.80;;
21032;SDS011;10675;47.976;7.824;2023-02-28T17:12:06;8.20;;;4.83;;
21032;SDS011;10675;47.976;7.824;2023-02-28T17:14:32;7.63;;;4.83;;
21032;SDS011;10675;47.976;7.824;2023-02-28T17:16:58;6.37;;;4.50;;
21032;SDS011;10675;47.976;7.824;2023-02-28T17:19:23;7.33;;;5.03;;
21032;SDS011;10675;47.976;7.824;2023-02-28T17:21:49;8.43;;;5.07;;
21032;SDS011;10675;47.976;7.824;2023-02-28T17:24:15;7.03;;;4.60;;
21032;SDS011;10675;47.976;7.824;2023-02-28T17:26:41;7.87;;;5.00;;
21032;SDS011;10675;47.976;7.824;2023-02-28T17:29:17;8.33;;;4.70;;
21032;SDS011;10675;47.976;7.824;2023-02-28T17:31:44;10.80;;;5.27;;